sensor_id;sensor_type;location;lat;lon;timestamp;temperature;humidity
66328;DHT22;53133;52.862;6.602;2022-11-30T00:00:55;8.40;99.90
66328;DHT22;53133;52.862;6.602;2022-11-30T00:03:22;8.40;99.90
66328;DHT22;53133;52.862;6.602;2022-11-30T00:05:48;8.40;99.90
66328;DHT22;53133;52.862;6.602;2022-11-30T00:08:14;8.40;99.90
66328;DHT22;53133;52.862;6.602;2022-11-30T00:10:40;8.40;99.90
66328;DHT22;53133;52.862;6.602;2022-11-30T00:13:06;8.40;99.90
66328;DHT22;53133;52.862;6.602;2022-11-30T00:15:32;8.40;99.90
66328;DHT22;53133;52.862;6.602;2022-11-30T00:17:58;8.40;99.90
66328;DHT22;53133;52.862;6.602;2022-11-30T00:20:24;8.40;99.90
66328;DHT22;53133;52.862;6.602;2022-11-30T00:22:50;8.30;99.90
66328;DHT22;53133;52.862;6.602;2022-11-30T00:25:16;8.30;99.90
66328;DHT22;53133;52.862;6.602;2022-11-30T00:27:41;8.30;99.90
66328;DHT22;53133;52.862;6.602;2022-11-30T00:30:07;8.20;99.90
66328;DHT22;53133;52.862;6.602;2022-11-30T00:32:33;8.10;99.90
66328;DHT22;53133;52.862;6.602;2022-11-30T00:34:59;8.10;99.90
66328;DHT22;53133;52.862;6.602;2022-11-30T00:37:25;8.00;99.90
66328;DHT22;53133;52.862;6.602;2022-11-30T00:39:50;8.00;99.90
66328;DHT22;53133;52.862;6.602;2022-11-30T00:42:16;7.90;99.90
66328;DHT22;53133;52.862;6.602;2022-11-30T00:44:41;7.80;99.90
66328;DHT22;53133;52.862;6.602;2022-11-30T00:47:10;7.70;99.90
66328;DHT22;53133;52.862;6.602;2022-11-30T00:49:35;7.70;99.90
66328;DHT22;53133;52.862;6.602;2022-11-30T00:52:02;7.60;99.90
66328;DHT22;53133;52.862;6.602;2022-11-30T00:54:28;7.60;99.90
66328;DHT22;53133;52.862;6.602;2022-11-30T00:56:54;7.60;99.90
66328;DHT22;53133;52.862;6.602;2022-11-30T00:59:19;7.60;99.90
66328;DHT22;53133;52.862;6.602;2022-11-30T01:01:45;7.60;99.90
66328;DHT22;53133;52.862;6.602;2022-11-30T01:04:10;7.50;99.90
66328;DHT22;53133;52.862;6.602;2022-11-30T01:06:36;7.50;99.90
66328;DHT22;53133;52.862;6.602;2022-11-30T01:09:02;7.50;99.90
66328;DHT22;53133;52.862;6.602;2022-11-30T01:11:30;7.40;99.90
66328;DHT22;53133;52.862;6.602;2022-11-30T01:13:57;7.40;99.90
66328;DHT22;53133;52.862;6.602;2022-11-30T01:16:26;7.40;99.90
66328;DHT22;53133;52.862;6.602;2022-11-30T01:18:52;7.50;99.90
66328;DHT22;53133;52.862;6.602;2022-11-30T01:21:23;7.50;99.90
66328;DHT22;53133;52.862;6.602;2022-11-30T01:23:50;7.50;99.90
66328;DHT22;53133;52.862;6.602;2022-11-30T01:26:16;7.60;99.90
66328;DHT22;53133;52.862;6.602;2022-11-30T01:28:42;7.60;99.90
66328;DHT22;53133;52.862;6.602;2022-11-30T01:31:11;7.60;99.90
66328;DHT22;53133;52.862;6.602;2022-11-30T01:33:37;7.70;99.90
66328;DHT22;53133;52.862;6.602;2022-11-30T01:36:10;7.70;99.90
66328;DHT22;53133;52.862;6.602;2022-11-30T01:38:38;7.70;99.90
66328;DHT22;53133;52.862;6.602;2022-11-30T01:41:05;7.70;99.90
66328;DHT22;53133;52.862;6.602;2022-11-30T01:43:38;7.70;99.90
66328;DHT22;53133;52.862;6.602;2022-11-30T01:46:15;7.80;99.90
66328;DHT22;53133;52.862;6.602;2022-11-30T01:48:42;7.80;99.90
66328;DHT22;53133;52.862;6.602;2022-11-30T01:51:07;7.80;99.90
66328;DHT22;53133;52.862;6.602;2022-11-30T01:53:33;7.80;99.90
66328;DHT22;53133;52.862;6.602;2022-11-30T01:55:58;7.80;99.90
66328;DHT22;53133;52.862;6.602;2022-11-30T01:58:26;7.80;99.90
66328;DHT22;53133;52.862;6.602;2022-11-30T02:00:53;7.80;99.90
66328;DHT22;53133;52.862;6.602;2022-11-30T02:05:55;7.90;99.90
66328;DHT22;53133;52.862;6.602;2022-11-30T02:08:21;7.90;99.90
66328;DHT22;53133;52.862;6.602;2022-11-30T02:10:53;7.90;99.90
66328;DHT22;53133;52.862;6.602;2022-11-30T02:21:31;7.80;99.90
66328;DHT22;53133;52.862;6.602;2022-11-30T02:24:27;7.80;99.90
66328;DHT22;53133;52.862;6.602;2022-11-30T02:29:53;7.80;99.90
66328;DHT22;53133;52.862;6.602;2022-11-30T02:32:25;7.80;99.90
66328;DHT22;53133;52.862;6.602;2022-11-30T02:34:54;7.80;99.90
66328;DHT22;53133;52.862;6.602;2022-11-30T02:37:21;7.80;99.90
66328;DHT22;53133;52.862;6.602;2022-11-30T02:39:47;7.70;99.90
66328;DHT22;53133;52.862;6.602;2022-11-30T02:42:13;7.80;99.90
66328;DHT22;53133;52.862;6.602;2022-11-30T02:44:45;7.80;99.90
66328;DHT22;53133;52.862;6.602;2022-11-30T02:52:17;7.80;99.90
66328;DHT22;53133;52.862;6.602;2022-11-30T02:54:44;7.80;99.90
66328;DHT22;53133;52.862;6.602;2022-11-30T02:57:10;7.80;99.90
66328;DHT22;53133;52.862;6.602;2022-11-30T02:59:36;7.70;99.90
66328;DHT22;53133;52.862;6.602;2022-11-30T03:02:02;7.80;99.90
66328;DHT22;53133;52.862;6.602;2022-11-30T03:04:27;7.70;99.90
66328;DHT22;53133;52.862;6.602;2022-11-30T03:06:53;7.80;99.90
66328;DHT22;53133;52.862;6.602;2022-11-30T03:09:18;7.80;99.90
66328;DHT22;53133;52.862;6.602;2022-11-30T03:11:44;7.70;99.90
66328;DHT22;53133;52.862;6.602;2022-11-30T03:14:10;7.80;99.90
66328;DHT22;53133;52.862;6.602;2022-11-30T03:16:36;7.80;99.90
66328;DHT22;53133;52.862;6.602;2022-11-30T03:19:02;7.70;99.90
66328;DHT22;53133;52.862;6.602;2022-11-30T03:21:27;7.70;99.90
66328;DHT22;53133;52.862;6.602;2022-11-30T03:23:53;7.70;99.90
66328;DHT22;53133;52.862;6.602;2022-11-30T03:26:19;7.70;99.90
66328;DHT22;53133;52.862;6.602;2022-11-30T03:28:44;7.70;99.90
66328;DHT22;53133;52.862;6.602;2022-11-30T03:31:11;7.80;99.90
66328;DHT22;53133;52.862;6.602;2022-11-30T03:33:41;7.70;99.90
66328;DHT22;53133;52.862;6.602;2022-11-30T03:36:08;7.80;99.90
66328;DHT22;53133;52.862;6.602;2022-11-30T03:38:34;7.80;99.90
66328;DHT22;53133;52.862;6.602;2022-11-30T03:41:06;7.80;99.90
66328;DHT22;53133;52.862;6.602;2022-11-30T03:43:33;7.80;99.90
66328;DHT22;53133;52.862;6.602;2022-11-30T03:45:59;7.80;99.90
66328;DHT22;53133;52.862;6.602;2022-11-30T03:48:25;7.80;99.90
66328;DHT22;53133;52.862;6.602;2022-11-30T03:50:50;7.80;99.90
66328;DHT22;53133;52.862;6.602;2022-11-30T03:53:17;7.80;99.90
66328;DHT22;53133;52.862;6.602;2022-11-30T03:55:43;7.80;99.90
66328;DHT22;53133;52.862;6.602;2022-11-30T03:58:08;7.80;99.90
66328;DHT22;53133;52.862;6.602;2022-11-30T04:00:34;7.80;99.90
66328;DHT22;53133;52.862;6.602;2022-11-30T04:03:01;7.80;99.90
66328;DHT22;53133;52.862;6.602;2022-11-30T04:05:26;7.90;99.90
66328;DHT22;53133;52.862;6.602;2022-11-30T04:07:52;7.80;99.90
66328;DHT22;53133;52.862;6.602;2022-11-30T04:10:17;7.80;99.90
66328;DHT22;53133;52.862;6.602;2022-11-30T04:12:43;7.80;99.90
66328;DHT22;53133;52.862;6.602;2022-11-30T04:15:09;7.80;99.90
66328;DHT22;53133;52.862;6.602;2022-11-30T04:17:34;7.80;99.90
66328;DHT22;53133;52.862;6.602;2022-11-30T04:20:00;7.80;99.90
66328;DHT22;53133;52.862;6.602;2022-11-30T04:22:26;7.80;99.90
66328;DHT22;53133;52.862;6.602;2022-11-30T04:24:51;7.80;99.90
66328;DHT22;53133;52.862;6.602;2022-11-30T04:27:17;7.80;99.90
66328;DHT22;53133;52.862;6.602;2022-11-30T04:29:42;7.80;99.90
66328;DHT22;53133;52.862;6.602;2022-11-30T04:32:08;7.70;99.90
66328;DHT22;53133;52.862;6.602;2022-11-30T04:34:33;7.70;99.90
66328;DHT22;53133;52.862;6.602;2022-11-30T04:36:59;7.70;99.90
66328;DHT22;53133;52.862;6.602;2022-11-30T04:39:24;7.70;99.90
66328;DHT22;53133;52.862;6.602;2022-11-30T04:41:50;7.70;99.90
66328;DHT22;53133;52.862;6.602;2022-11-30T04:44:16;7.70;99.90
66328;DHT22;53133;52.862;6.602;2022-11-30T04:46:42;7.70;99.90
66328;DHT22;53133;52.862;6.602;2022-11-30T04:49:07;7.70;99.90
66328;DHT22;53133;52.862;6.602;2022-11-30T04:51:33;7.70;99.90
66328;DHT22;53133;52.862;6.602;2022-11-30T04:53:58;7.70;99.90
66328;DHT22;53133;52.862;6.602;2022-11-30T04:56:24;7.80;99.90
66328;DHT22;53133;52.862;6.602;2022-11-30T04:58:49;7.70;99.90
66328;DHT22;53133;52.862;6.602;2022-11-30T05:01:15;7.80;99.90
66328;DHT22;53133;52.862;6.602;2022-11-30T05:03:40;7.70;99.90
66328;DHT22;53133;52.862;6.602;2022-11-30T05:06:06;7.70;99.90
66328;DHT22;53133;52.862;6.602;2022-11-30T05:08:32;7.80;99.90
66328;DHT22;53133;52.862;6.602;2022-11-30T05:10:57;7.80;99.90
66328;DHT22;53133;52.862;6.602;2022-11-30T05:13:24;7.80;99.90
66328;DHT22;53133;52.862;6.602;2022-11-30T05:15:50;7.80;99.90
66328;DHT22;53133;52.862;6.602;2022-11-30T05:18:18;7.70;99.90
66328;DHT22;53133;52.862;6.602;2022-11-30T05:20:50;7.70;99.90
66328;DHT22;53133;52.862;6.602;2022-11-30T05:23:18;7.70;99.90
66328;DHT22;53133;52.862;6.602;2022-11-30T05:25:44;7.70;99.90
66328;DHT22;53133;52.862;6.602;2022-11-30T05:28:10;7.70;99.90
66328;DHT22;53133;52.862;6.602;2022-11-30T05:30:38;7.70;99.90
66328;DHT22;53133;52.862;6.602;2022-11-30T05:33:04;7.70;99.90
66328;DHT22;53133;52.862;6.602;2022-11-30T05:35:29;7.70;99.90
66328;DHT22;53133;52.862;6.602;2022-11-30T05:37:55;7.70;99.90
66328;DHT22;53133;52.862;6.602;2022-11-30T05:40:20;7.60;99.90
66328;DHT22;53133;52.862;6.602;2022-11-30T05:42:46;7.60;99.90
66328;DHT22;53133;52.862;6.602;2022-11-30T05:45:12;7.60;99.90
66328;DHT22;53133;52.862;6.602;2022-11-30T05:47:37;7.60;99.90
66328;DHT22;53133;52.862;6.602;2022-11-30T05:50:03;7.60;99.90
66328;DHT22;53133;52.862;6.602;2022-11-30T05:52:29;7.60;99.90
66328;DHT22;53133;52.862;6.602;2022-11-30T05:54:55;7.50;99.90
66328;DHT22;53133;52.862;6.602;2022-11-30T05:57:20;7.60;99.90
66328;DHT22;53133;52.862;6.602;2022-11-30T05:59:46;7.60;99.90
66328;DHT22;53133;52.862;6.602;2022-11-30T06:02:11;7.60;99.90
66328;DHT22;53133;52.862;6.602;2022-11-30T06:04:37;7.50;99.90
66328;DHT22;53133;52.862;6.602;2022-11-30T06:07:02;7.60;99.90
66328;DHT22;53133;52.862;6.602;2022-11-30T06:09:28;7.60;99.90
66328;DHT22;53133;52.862;6.602;2022-11-30T06:11:54;7.60;99.90
66328;DHT22;53133;52.862;6.602;2022-11-30T06:14:22;7.60;99.90
66328;DHT22;53133;52.862;6.602;2022-11-30T06:16:48;7.60;99.90
66328;DHT22;53133;52.862;6.602;2022-11-30T06:19:13;7.60;99.90
66328;DHT22;53133;52.862;6.602;2022-11-30T06:21:39;7.60;99.90
66328;DHT22;53133;52.862;6.602;2022-11-30T06:24:05;7.60;99.90
66328;DHT22;53133;52.862;6.602;2022-11-30T06:26:30;7.60;99.90
66328;DHT22;53133;52.862;6.602;2022-11-30T06:28:56;7.60;99.90
66328;DHT22;53133;52.862;6.602;2022-11-30T06:31:21;7.60;99.90
66328;DHT22;53133;52.862;6.602;2022-11-30T06:33:47;7.60;99.90
66328;DHT22;53133;52.862;6.602;2022-11-30T06:36:13;7.70;99.90
66328;DHT22;53133;52.862;6.602;2022-11-30T06:38:38;7.70;99.90
66328;DHT22;53133;52.862;6.602;2022-11-30T06:41:06;7.70;99.90
66328;DHT22;53133;52.862;6.602;2022-11-30T06:43:37;7.70;99.90
66328;DHT22;53133;52.862;6.602;2022-11-30T06:46:03;7.60;99.90
66328;DHT22;53133;52.862;6.602;2022-11-30T06:48:29;7.60;99.90
66328;DHT22;53133;52.862;6.602;2022-11-30T06:50:55;7.60;99.90
66328;DHT22;53133;52.862;6.602;2022-11-30T06:53:21;7.60;99.90
66328;DHT22;53133;52.862;6.602;2022-11-30T06:55:46;7.60;99.90
66328;DHT22;53133;52.862;6.602;2022-11-30T06:58:12;7.50;99.90
66328;DHT22;53133;52.862;6.602;2022-11-30T07:00:37;7.50;99.90
66328;DHT22;53133;52.862;6.602;2022-11-30T07:03:04;7.50;99.90
66328;DHT22;53133;52.862;6.602;2022-11-30T07:05:32;7.50;99.90
66328;DHT22;53133;52.862;6.602;2022-11-30T07:07:59;7.50;99.90
66328;DHT22;53133;52.862;6.602;2022-11-30T07:10:25;7.50;99.90
66328;DHT22;53133;52.862;6.602;2022-11-30T07:12:50;7.50;99.90
66328;DHT22;53133;52.862;6.602;2022-11-30T07:15:16;7.50;99.90
66328;DHT22;53133;52.862;6.602;2022-11-30T07:17:42;7.50;99.90
66328;DHT22;53133;52.862;6.602;2022-11-30T07:20:08;7.50;99.90
66328;DHT22;53133;52.862;6.602;2022-11-30T07:22:33;7.50;99.90
66328;DHT22;53133;52.862;6.602;2022-11-30T07:24:59;7.50;99.90
66328;DHT22;53133;52.862;6.602;2022-11-30T07:27:43;7.50;99.90
66328;DHT22;53133;52.862;6.602;2022-11-30T07:30:09;7.40;99.90
66328;DHT22;53133;52.862;6.602;2022-11-30T07:32:35;7.50;99.90
66328;DHT22;53133;52.862;6.602;2022-11-30T07:35:00;7.40;99.90
66328;DHT22;53133;52.862;6.602;2022-11-30T07:37:26;7.40;99.90
66328;DHT22;53133;52.862;6.602;2022-11-30T07:39:51;7.50;99.90
66328;DHT22;53133;52.862;6.602;2022-11-30T07:42:17;7.50;99.90
66328;DHT22;53133;52.862;6.602;2022-11-30T07:44:42;7.40;99.90
66328;DHT22;53133;52.862;6.602;2022-11-30T07:47:08;7.40;99.90
66328;DHT22;53133;52.862;6.602;2022-11-30T07:49:34;7.40;99.90
66328;DHT22;53133;52.862;6.602;2022-11-30T07:51:59;7.40;99.90
66328;DHT22;53133;52.862;6.602;2022-11-30T07:54:25;7.40;99.90
66328;DHT22;53133;52.862;6.602;2022-11-30T07:56:53;7.40;99.90
66328;DHT22;53133;52.862;6.602;2022-11-30T07:59:19;7.40;99.90
66328;DHT22;53133;52.862;6.602;2022-11-30T08:01:45;7.40;99.90
66328;DHT22;53133;52.862;6.602;2022-11-30T08:04:10;7.40;99.90
66328;DHT22;53133;52.862;6.602;2022-11-30T08:06:38;7.40;99.90
66328;DHT22;53133;52.862;6.602;2022-11-30T08:09:04;7.40;99.90
66328;DHT22;53133;52.862;6.602;2022-11-30T08:11:33;7.40;99.90
66328;DHT22;53133;52.862;6.602;2022-11-30T08:13:59;7.40;99.90
66328;DHT22;53133;52.862;6.602;2022-11-30T08:16:27;7.50;99.90
66328;DHT22;53133;52.862;6.602;2022-11-30T08:18:55;7.50;99.90
66328;DHT22;53133;52.862;6.602;2022-11-30T08:21:21;7.50;99.90
66328;DHT22;53133;52.862;6.602;2022-11-30T08:23:54;7.50;99.90
66328;DHT22;53133;52.862;6.602;2022-11-30T08:28:51;7.50;99.90
66328;DHT22;53133;52.862;6.602;2022-11-30T08:33:44;7.50;99.90
66328;DHT22;53133;52.862;6.602;2022-11-30T08:36:18;7.50;99.90
66328;DHT22;53133;52.862;6.602;2022-11-30T08:38:44;7.50;99.90
66328;DHT22;53133;52.862;6.602;2022-11-30T08:41:13;7.40;99.90
66328;DHT22;53133;52.862;6.602;2022-11-30T08:43:38;7.40;99.90
66328;DHT22;53133;52.862;6.602;2022-11-30T08:46:06;7.40;99.90
66328;DHT22;53133;52.862;6.602;2022-11-30T08:48:33;7.40;99.90
66328;DHT22;53133;52.862;6.602;2022-11-30T08:51:04;7.40;99.90
66328;DHT22;53133;52.862;6.602;2022-11-30T08:53:31;7.40;99.90
66328;DHT22;53133;52.862;6.602;2022-11-30T08:55:57;7.30;99.90
66328;DHT22;53133;52.862;6.602;2022-11-30T08:58:24;7.40;99.90
66328;DHT22;53133;52.862;6.602;2022-11-30T09:00:49;7.40;99.90
66328;DHT22;53133;52.862;6.602;2022-11-30T09:03:15;7.40;99.90
66328;DHT22;53133;52.862;6.602;2022-11-30T09:05:40;7.40;99.90
66328;DHT22;53133;52.862;6.602;2022-11-30T09:08:06;7.50;99.90
66328;DHT22;53133;52.862;6.602;2022-11-30T09:10:31;7.50;99.90
66328;DHT22;53133;52.862;6.602;2022-11-30T09:12:57;7.50;99.90
66328;DHT22;53133;52.862;6.602;2022-11-30T09:15:22;7.50;99.90
66328;DHT22;53133;52.862;6.602;2022-11-30T09:17:48;7.50;99.90
66328;DHT22;53133;52.862;6.602;2022-11-30T09:20:14;7.40;99.90
66328;DHT22;53133;52.862;6.602;2022-11-30T09:22:40;7.40;99.90
66328;DHT22;53133;52.862;6.602;2022-11-30T09:25:06;7.50;99.90
66328;DHT22;53133;52.862;6.602;2022-11-30T09:27:32;7.40;99.90
66328;DHT22;53133;52.862;6.602;2022-11-30T09:29:58;7.50;99.90
66328;DHT22;53133;52.862;6.602;2022-11-30T09:32:24;7.50;99.90
66328;DHT22;53133;52.862;6.602;2022-11-30T09:34:49;7.50;99.90
66328;DHT22;53133;52.862;6.602;2022-11-30T09:37:15;7.50;99.90
66328;DHT22;53133;52.862;6.602;2022-11-30T09:39:40;7.50;99.90
66328;DHT22;53133;52.862;6.602;2022-11-30T09:42:31;7.50;99.90
66328;DHT22;53133;52.862;6.602;2022-11-30T09:45:13;7.50;99.90
66328;DHT22;53133;52.862;6.602;2022-11-30T09:47:43;7.50;99.90
66328;DHT22;53133;52.862;6.602;2022-11-30T09:50:25;7.50;99.90
66328;DHT22;53133;52.862;6.602;2022-11-30T09:53:01;7.60;99.90
66328;DHT22;53133;52.862;6.602;2022-11-30T09:55:38;7.60;99.90
66328;DHT22;53133;52.862;6.602;2022-11-30T09:58:06;7.60;99.90
66328;DHT22;53133;52.862;6.602;2022-11-30T10:00:33;7.70;99.90
66328;DHT22;53133;52.862;6.602;2022-11-30T10:03:03;7.70;99.90
66328;DHT22;53133;52.862;6.602;2022-11-30T10:06:06;7.70;99.90
66328;DHT22;53133;52.862;6.602;2022-11-30T10:14:36;7.70;99.90
66328;DHT22;53133;52.862;6.602;2022-11-30T10:25:48;7.80;99.90
66328;DHT22;53133;52.862;6.602;2022-11-30T10:28:22;7.70;99.90
66328;DHT22;53133;52.862;6.602;2022-11-30T10:30:48;7.70;99.90
66328;DHT22;53133;52.862;6.602;2022-11-30T10:33:25;7.70;99.90
66328;DHT22;53133;52.862;6.602;2022-11-30T10:35:53;7.60;99.90
66328;DHT22;53133;52.862;6.602;2022-11-30T10:38:32;7.70;99.90
66328;DHT22;53133;52.862;6.602;2022-11-30T10:46:23;7.80;99.90
66328;DHT22;53133;52.862;6.602;2022-11-30T10:49:11;7.80;99.90
66328;DHT22;53133;52.862;6.602;2022-11-30T10:51:42;7.90;99.90
66328;DHT22;53133;52.862;6.602;2022-11-30T10:54:14;7.90;99.90
66328;DHT22;53133;52.862;6.602;2022-11-30T10:56:40;7.90;99.90
66328;DHT22;53133;52.862;6.602;2022-11-30T10:59:21;7.90;99.90
66328;DHT22;53133;52.862;6.602;2022-11-30T11:01:48;8.00;99.90
66328;DHT22;53133;52.862;6.602;2022-11-30T11:12:02;7.90;99.90
66328;DHT22;53133;52.862;6.602;2022-11-30T11:14:29;7.80;99.90
66328;DHT22;53133;52.862;6.602;2022-11-30T11:17:03;7.80;99.90
66328;DHT22;53133;52.862;6.602;2022-11-30T11:19:36;7.80;99.90
66328;DHT22;53133;52.862;6.602;2022-11-30T11:22:04;7.90;99.90
66328;DHT22;53133;52.862;6.602;2022-11-30T11:24:31;7.80;99.90
66328;DHT22;53133;52.862;6.602;2022-11-30T11:26:57;7.90;99.90
66328;DHT22;53133;52.862;6.602;2022-11-30T11:29:25;7.90;99.90
66328;DHT22;53133;52.862;6.602;2022-11-30T11:32:06;7.90;99.90
66328;DHT22;53133;52.862;6.602;2022-11-30T11:34:34;7.90;99.90
66328;DHT22;53133;52.862;6.602;2022-11-30T11:37:27;7.90;99.90
66328;DHT22;53133;52.862;6.602;2022-11-30T11:42:35;8.00;99.90
66328;DHT22;53133;52.862;6.602;2022-11-30T11:45:13;7.90;99.90
66328;DHT22;53133;52.862;6.602;2022-11-30T11:47:40;8.00;99.90
66328;DHT22;53133;52.862;6.602;2022-11-30T11:52:48;8.00;99.90
66328;DHT22;53133;52.862;6.602;2022-11-30T11:55:18;8.00;99.90
66328;DHT22;53133;52.862;6.602;2022-11-30T11:57:55;7.90;99.90
66328;DHT22;53133;52.862;6.602;2022-11-30T12:00:23;7.90;99.90
66328;DHT22;53133;52.862;6.602;2022-11-30T12:03:13;7.90;99.90
66328;DHT22;53133;52.862;6.602;2022-11-30T12:05:49;8.00;99.90
66328;DHT22;53133;52.862;6.602;2022-11-30T12:08:37;8.00;99.90
66328;DHT22;53133;52.862;6.602;2022-11-30T12:11:36;8.00;99.90
66328;DHT22;53133;52.862;6.602;2022-11-30T12:14:12;8.00;99.90
66328;DHT22;53133;52.862;6.602;2022-11-30T12:19:53;8.00;99.90
66328;DHT22;53133;52.862;6.602;2022-11-30T12:25:29;8.00;99.90
66328;DHT22;53133;52.862;6.602;2022-11-30T12:36:12;8.10;99.90
66328;DHT22;53133;52.862;6.602;2022-11-30T12:39:04;8.00;99.90
66328;DHT22;53133;52.862;6.602;2022-11-30T12:41:44;8.00;99.90
66328;DHT22;53133;52.862;6.602;2022-11-30T12:47:14;7.90;99.90
66328;DHT22;53133;52.862;6.602;2022-11-30T12:52:20;7.80;99.90
66328;DHT22;53133;52.862;6.602;2022-11-30T12:58:21;7.80;99.90
66328;DHT22;53133;52.862;6.602;2022-11-30T13:00:59;7.80;99.90
66328;DHT22;53133;52.862;6.602;2022-11-30T13:06:25;7.80;99.90
66328;DHT22;53133;52.862;6.602;2022-11-30T13:11:51;7.90;99.90
66328;DHT22;53133;52.862;6.602;2022-11-30T13:14:24;7.90;99.90
66328;DHT22;53133;52.862;6.602;2022-11-30T13:17:02;7.90;99.90
66328;DHT22;53133;52.862;6.602;2022-11-30T13:22:09;7.90;99.90
66328;DHT22;53133;52.862;6.602;2022-11-30T13:24:42;7.90;99.90
66328;DHT22;53133;52.862;6.602;2022-11-30T13:27:29;7.90;99.90
66328;DHT22;53133;52.862;6.602;2022-11-30T13:30:08;7.90;99.90
66328;DHT22;53133;52.862;6.602;2022-11-30T13:32:37;7.90;99.90
66328;DHT22;53133;52.862;6.602;2022-11-30T13:38:18;7.90;99.90
66328;DHT22;53133;52.862;6.602;2022-11-30T13:41:16;7.90;99.90
66328;DHT22;53133;52.862;6.602;2022-11-30T13:43:47;7.90;99.90
66328;DHT22;53133;52.862;6.602;2022-11-30T13:46:13;7.90;99.90
66328;DHT22;53133;52.862;6.602;2022-11-30T13:48:41;7.90;99.90
66328;DHT22;53133;52.862;6.602;2022-11-30T13:51:08;7.90;99.90
66328;DHT22;53133;52.862;6.602;2022-11-30T13:53:36;7.90;99.90
66328;DHT22;53133;52.862;6.602;2022-11-30T14:01:47;7.90;99.90
66328;DHT22;53133;52.862;6.602;2022-11-30T14:09:14;7.80;99.90
66328;DHT22;53133;52.862;6.602;2022-11-30T14:11:42;7.80;99.90
66328;DHT22;53133;52.862;6.602;2022-11-30T14:17:15;7.80;99.90
66328;DHT22;53133;52.862;6.602;2022-11-30T14:19:46;7.80;99.90
66328;DHT22;53133;52.862;6.602;2022-11-30T14:22:12;7.80;99.90
66328;DHT22;53133;52.862;6.602;2022-11-30T14:24:40;7.80;99.90
66328;DHT22;53133;52.862;6.602;2022-11-30T14:27:14;7.80;99.90
66328;DHT22;53133;52.862;6.602;2022-11-30T14:29:40;7.80;99.90
66328;DHT22;53133;52.862;6.602;2022-11-30T14:32:11;7.80;99.90
66328;DHT22;53133;52.862;6.602;2022-11-30T14:34:50;7.80;99.90
66328;DHT22;53133;52.862;6.602;2022-11-30T14:37:25;7.80;99.90
66328;DHT22;53133;52.862;6.602;2022-11-30T14:39:53;7.80;99.90
66328;DHT22;53133;52.862;6.602;2022-11-30T14:42:28;7.80;99.90
66328;DHT22;53133;52.862;6.602;2022-11-30T14:44:54;7.80;99.90
66328;DHT22;53133;52.862;6.602;2022-11-30T14:47:26;7.80;99.90
66328;DHT22;53133;52.862;6.602;2022-11-30T14:49:53;7.70;99.90
66328;DHT22;53133;52.862;6.602;2022-11-30T14:57:48;7.70;99.90
66328;DHT22;53133;52.862;6.602;2022-11-30T15:00:19;7.80;99.90
66328;DHT22;53133;52.862;6.602;2022-11-30T15:02:46;7.70;99.90
66328;DHT22;53133;52.862;6.602;2022-11-30T15:05:20;7.70;99.90
66328;DHT22;53133;52.862;6.602;2022-11-30T15:07:47;7.70;99.90
66328;DHT22;53133;52.862;6.602;2022-11-30T15:10:17;7.70;99.90
66328;DHT22;53133;52.862;6.602;2022-11-30T15:12:43;7.70;99.90
66328;DHT22;53133;52.862;6.602;2022-11-30T15:15:23;7.60;99.90
66328;DHT22;53133;52.862;6.602;2022-11-30T15:20:35;7.70;99.90
66328;DHT22;53133;52.862;6.602;2022-11-30T15:23:01;7.60;99.90
66328;DHT22;53133;52.862;6.602;2022-11-30T15:25:45;7.60;99.90
66328;DHT22;53133;52.862;6.602;2022-11-30T15:28:17;7.60;99.90
66328;DHT22;53133;52.862;6.602;2022-11-30T15:30:45;7.60;99.90
66328;DHT22;53133;52.862;6.602;2022-11-30T15:33:18;7.60;99.90
66328;DHT22;53133;52.862;6.602;2022-11-30T15:35:47;7.60;99.90
66328;DHT22;53133;52.862;6.602;2022-11-30T15:38:18;7.60;99.90
66328;DHT22;53133;52.862;6.602;2022-11-30T15:40:45;7.50;99.90
66328;DHT22;53133;52.862;6.602;2022-11-30T15:43:20;7.50;99.90
66328;DHT22;53133;52.862;6.602;2022-11-30T15:45:56;7.50;99.90
66328;DHT22;53133;52.862;6.602;2022-11-30T15:48:34;7.50;99.90
66328;DHT22;53133;52.862;6.602;2022-11-30T15:51:00;7.50;99.90
66328;DHT22;53133;52.862;6.602;2022-11-30T15:53:34;7.50;99.90
66328;DHT22;53133;52.862;6.602;2022-11-30T15:56:24;7.50;99.90
66328;DHT22;53133;52.862;6.602;2022-11-30T16:01:56;7.50;99.90
66328;DHT22;53133;52.862;6.602;2022-11-30T16:07:28;7.50;99.90
66328;DHT22;53133;52.862;6.602;2022-11-30T16:12:29;7.50;99.90
66328;DHT22;53133;52.862;6.602;2022-11-30T16:14:55;7.40;99.90
66328;DHT22;53133;52.862;6.602;2022-11-30T16:17:20;7.50;99.90
66328;DHT22;53133;52.862;6.602;2022-11-30T16:19:46;7.50;99.90
66328;DHT22;53133;52.862;6.602;2022-11-30T16:22:12;7.50;99.90
66328;DHT22;53133;52.862;6.602;2022-11-30T16:24:39;7.50;99.90
66328;DHT22;53133;52.862;6.602;2022-11-30T16:27:18;7.50;99.90
66328;DHT22;53133;52.862;6.602;2022-11-30T16:29:45;7.50;99.90
66328;DHT22;53133;52.862;6.602;2022-11-30T16:32:12;7.50;99.90
66328;DHT22;53133;52.862;6.602;2022-11-30T16:34:38;7.50;99.90
66328;DHT22;53133;52.862;6.602;2022-11-30T16:37:04;7.50;99.90
66328;DHT22;53133;52.862;6.602;2022-11-30T16:39:30;7.50;99.90
66328;DHT22;53133;52.862;6.602;2022-11-30T16:41:56;7.50;99.90
66328;DHT22;53133;52.862;6.602;2022-11-30T16:44:22;7.50;99.90
66328;DHT22;53133;52.862;6.602;2022-11-30T16:46:50;7.50;99.90
66328;DHT22;53133;52.862;6.602;2022-11-30T16:49:18;7.50;99.90
66328;DHT22;53133;52.862;6.602;2022-11-30T16:51:44;7.50;99.90
66328;DHT22;53133;52.862;6.602;2022-11-30T16:54:13;7.50;99.90
66328;DHT22;53133;52.862;6.602;2022-11-30T16:56:40;7.50;99.90
66328;DHT22;53133;52.862;6.602;2022-11-30T16:59:06;7.50;99.90
66328;DHT22;53133;52.862;6.602;2022-11-30T17:01:41;7.50;99.90
66328;DHT22;53133;52.862;6.602;2022-11-30T17:04:11;7.50;99.90
66328;DHT22;53133;52.862;6.602;2022-11-30T17:06:39;7.50;99.90
66328;DHT22;53133;52.862;6.602;2022-11-30T17:09:05;7.50;99.90
66328;DHT22;53133;52.862;6.602;2022-11-30T17:11:35;7.40;99.90
66328;DHT22;53133;52.862;6.602;2022-11-30T17:14:01;7.50;99.90
66328;DHT22;53133;52.862;6.602;2022-11-30T17:16:27;7.50;99.90
66328;DHT22;53133;52.862;6.602;2022-11-30T17:18:52;7.50;99.90
66328;DHT22;53133;52.862;6.602;2022-11-30T17:21:25;7.50;99.90
66328;DHT22;53133;52.862;6.602;2022-11-30T17:23:51;7.50;99.90
66328;DHT22;53133;52.862;6.602;2022-11-30T17:26:17;7.50;99.90
66328;DHT22;53133;52.862;6.602;2022-11-30T17:28:42;7.50;99.90
66328;DHT22;53133;52.862;6.602;2022-11-30T17:31:09;7.50;99.90
66328;DHT22;53133;52.862;6.602;2022-11-30T17:33:36;7.50;99.90
66328;DHT22;53133;52.862;6.602;2022-11-30T17:36:04;7.50;99.90
66328;DHT22;53133;52.862;6.602;2022-11-30T17:38:31;7.50;99.90
66328;DHT22;53133;52.862;6.602;2022-11-30T17:40:57;7.50;99.90
66328;DHT22;53133;52.862;6.602;2022-11-30T17:43:23;7.50;99.90
66328;DHT22;53133;52.862;6.602;2022-11-30T17:45:48;7.50;99.90
66328;DHT22;53133;52.862;6.602;2022-11-30T17:48:14;7.50;99.90
66328;DHT22;53133;52.862;6.602;2022-11-30T17:50:43;7.50;99.90
66328;DHT22;53133;52.862;6.602;2022-11-30T17:53:10;7.50;99.90
66328;DHT22;53133;52.862;6.602;2022-11-30T17:55:35;7.50;99.90